Time;durP1;ratioP1;P1;durP2;ratioP2;P2;SDS_P1;SDS_P2;PMS_P1;PMS_P2;Temp;Humidity;BMP_temperature;BMP_pressure;BME280_temperature;BME280_humidity;BME280_pressure;Samples;Min_cycle;Max_cycle;Signal;HPM_P1;HPM_P2
2021/09/10 00:01:25;;;;;;;35.78;23.83;;;;;;;16.56;77.17;100296.78;5107426;28;20357;-66
2021/09/10 00:03:50;;;;;;;33.67;23.30;;;;;;;16.64;76.97;100299.13;5107368;28;20025;-66
2021/09/10 00:06:15;;;;;;;38.53;24.25;;;;;;;16.67;77.26;100292.91;5107512;28;20055;-66
2021/09/10 00:08:41;;;;;;;38.50;24.48;;;;;;;16.65;77.04;100284.22;5107375;28;20024;-66
2021/09/10 00:11:06;;;;;;;34.78;24.50;;;;;;;16.67;76.79;100290.28;5107364;28;20024;-66
2021/09/10 00:13:32;;;;;;;34.30;23.50;;;;;;;16.65;76.82;100281.59;5107472;28;20065;-66
2021/09/10 00:15:57;;;;;;;34.33;23.10;;;;;;;16.65;77.00;100298.19;5107528;28;20028;-67
2021/09/10 00:18:22;;;;;;;32.80;24.48;;;;;;;16.64;77.03;100293.00;5107391;28;20078;-66
2021/09/10 00:20:48;;;;;;;35.42;22.80;;;;;;;16.62;77.15;100292.19;5107059;28;20055;-66
2021/09/10 00:23:14;;;;;;;33.50;22.85;;;;;;;16.55;77.24;100291.59;5107036;28;20043;-67
2021/09/10 00:25:40;;;;;;;35.40;23.83;;;;;;;16.54;77.07;100292.47;5106880;28;20028;-67
2021/09/10 00:28:06;;;;;;;36.65;23.10;;;;;;;16.50;77.32;100289.13;5107209;28;20475;-67
2021/09/10 00:30:31;;;;;;;32.72;22.77;;;;;;;16.49;77.47;100290.03;5088693;28;20036;-66
2021/09/10 00:32:56;;;;;;;37.42;23.08;;;;;;;16.52;77.71;100283.84;5106976;28;20020;-66
2021/09/10 00:35:22;;;;;;;36.83;22.60;;;;;;;16.55;77.83;100283.72;5088783;28;20051;-66
2021/09/10 00:37:47;;;;;;;32.33;21.73;;;;;;;16.53;77.53;100286.41;5106879;28;20028;-67
2021/09/10 00:40:13;;;;;;;32.53;23.15;;;;;;;16.52;77.32;100284.66;5106784;28;20388;-66
2021/09/10 00:42:38;;;;;;;33.53;22.40;;;;;;;16.53;77.38;100291.66;5106525;28;20027;-67
2021/09/10 00:45:04;;;;;;;33.40;21.50;;;;;;;16.51;77.38;100285.59;5106843;28;20024;-67
2021/09/10 00:47:30;;;;;;;34.55;22.60;;;;;;;16.53;77.31;100280.28;5106671;28;20149;-67
2021/09/10 00:49:55;;;;;;;31.90;21.25;;;;;;;16.48;77.41;100283.91;5106561;28;20015;-66
2021/09/10 00:52:21;;;;;;;32.80;22.52;;;;;;;16.47;77.40;100292.69;5106533;28;20027;-68
2021/09/10 00:54:47;;;;;;;34.92;22.83;;;;;;;16.44;77.48;100297.19;5087880;28;20525;-67
2021/09/10 00:57:14;;;;;;;30.67;21.98;;;;;;;16.45;77.28;100285.81;5106505;28;20513;-67
2021/09/10 00:59:39;;;;;;;30.02;20.65;;;;;;;16.44;77.39;100289.31;5106405;28;20077;-68
2021/09/10 01:02:05;;;;;;;28.45;20.02;;;;;;;16.45;77.06;100293.66;5106354;28;20023;-67
2021/09/10 01:04:30;;;;;;;32.15;20.92;;;;;;;16.44;77.20;100297.19;5106491;28;20484;-67
2021/09/10 01:06:56;;;;;;;30.67;21.92;;;;;;;16.42;77.14;100288.53;5105817;28;20047;-67
2021/09/10 01:09:22;;;;;;;32.90;22.15;;;;;;;16.35;76.90;100291.38;5106234;28;20394;-66
2021/09/10 01:11:50;;;;;;;26.38;18.88;;;;;;;16.37;76.86;100290.47;5106052;28;20028;-66
2021/09/10 01:14:17;;;;;;;26.10;19.02;;;;;;;16.38;76.88;100294.78;5106224;28;20020;-66
2021/09/10 01:16:43;;;;;;;28.42;18.85;;;;;;;16.38;76.70;100286.91;5105949;28;20024;-67
2021/09/10 01:19:24;;;;;;;26.90;18.23;;;;;;;16.43;76.57;100296.34;5106040;28;20027;-66
2021/09/10 01:21:52;;;;;;;27.38;17.67;;;;;;;16.43;76.50;100295.47;5106064;28;20052;-67
2021/09/10 01:24:19;;;;;;;26.42;18.65;;;;;;;16.43;76.25;100296.34;5105821;28;20020;-67
2021/09/10 01:26:44;;;;;;;25.95;18.85;;;;;;;16.37;76.23;100295.69;5087459;28;20110;-67
2021/09/10 01:29:10;;;;;;;26.63;18.42;;;;;;;16.34;76.34;100292.25;5105705;28;20078;-66
2021/09/10 01:31:35;;;;;;;26.83;17.58;;;;;;;16.33;76.14;100295.81;5105956;28;20028;-67
2021/09/10 01:34:00;;;;;;;25.83;19.13;;;;;;;16.37;76.27;100285.22;5105894;28;20024;-68
2021/09/10 01:36:26;;;;;;;23.88;17.88;;;;;;;16.36;75.94;100292.22;5105971;28;20052;-67
2021/09/10 01:38:51;;;;;;;27.95;17.40;;;;;;;16.38;75.63;100289.53;5105678;28;20035;-67
2021/09/10 01:41:16;;;;;;;24.80;18.20;;;;;;;16.35;75.50;100288.75;5105753;28;20450;-67
2021/09/10 01:43:42;;;;;;;24.02;16.52;;;;;;;16.35;75.83;100288.75;5105556;28;20024;-66
2021/09/10 01:46:07;;;;;;;27.52;17.70;;;;;;;16.34;75.37;100289.63;5105881;28;20028;-66
2021/09/10 01:48:33;;;;;;;24.70;17.23;;;;;;;16.37;75.26;100290.47;5087580;28;20468;-67
2021/09/10 01:50:58;;;;;;;26.33;17.92;;;;;;;16.36;75.60;100292.22;5105638;28;20026;-66
2021/09/10 01:53:31;;;;;;;27.27;17.27;;;;;;;16.30;75.35;100280.19;5105500;28;20102;-66
2021/09/10 01:55:56;;;;;;;29.45;18.63;;;;;;;16.28;75.39;100292.47;5105520;28;20028;-66
2021/09/10 01:58:21;;;;;;;27.80;19.80;;;;;;;16.27;75.44;100285.53;5105438;28;20054;-67
2021/09/10 02:00:46;;;;;;;29.00;18.45;;;;;;;16.26;75.48;100294.31;5105828;28;20222;-66
2021/09/10 02:03:12;;;;;;;24.15;18.73;;;;;;;16.24;75.48;100288.25;5087070;28;20040;-66
2021/09/10 02:05:37;;;;;;;28.10;19.40;;;;;;;16.20;75.49;100284.03;5105590;28;20028;-66
2021/09/10 02:08:03;;;;;;;27.88;20.05;;;;;;;16.15;75.68;100288.56;5105572;28;20035;-66
2021/09/10 02:10:28;;;;;;;25.90;18.60;;;;;;;16.06;76.02;100293.22;5105522;28;20020;-66
2021/09/10 02:12:54;;;;;;;26.67;18.17;;;;;;;16.00;76.09;100293.41;5105360;28;20054;-67
2021/09/10 02:15:19;;;;;;;30.65;20.08;;;;;;;15.92;76.67;100295.38;5105549;28;20500;-67
2021/09/10 02:17:44;;;;;;;25.92;17.98;;;;;;;15.88;76.67;100299.88;5105490;28;20051;-67
2021/09/10 02:20:10;;;;;;;25.48;17.35;;;;;;;15.83;76.96;100291.31;5107236;28;20461;-67
2021/09/10 02:22:36;;;;;;;26.60;18.88;;;;;;;15.83;76.89;100300.00;5109743;28;20069;-67
2021/09/10 02:25:02;;;;;;;29.75;19.27;;;;;;;15.87;76.87;100298.16;5109207;28;20020;-67
2021/09/10 02:27:27;;;;;;;24.67;17.05;;;;;;;15.82;76.73;100289.59;5109604;28;20020;-67
2021/09/10 02:29:52;;;;;;;26.48;16.25;;;;;;;15.83;76.76;100305.25;5109756;28;20074;-67
2021/09/10 02:32:18;;;;;;;26.23;16.85;;;;;;;15.85;76.98;100305.19;5109614;28;20035;-68
2021/09/10 02:34:43;;;;;;;26.85;17.85;;;;;;;15.79;76.86;100301.03;5109381;28;20020;-67
2021/09/10 02:37:09;;;;;;;25.13;17.63;;;;;;;15.78;76.61;100291.47;5109438;28;20113;-67
2021/09/10 02:39:34;;;;;;;25.05;18.42;;;;;;;15.84;76.44;100288.66;5109210;28;20055;-67
2021/09/10 02:41:59;;;;;;;24.23;17.23;;;;;;;15.81;76.49;100293.13;5109106;28;20016;-67
2021/09/10 02:44:25;;;;;;;27.70;19.27;;;;;;;15.79;76.43;100298.41;5108898;28;20063;-67
2021/09/10 02:46:53;;;;;;;25.00;16.83;;;;;;;15.72;76.67;100292.50;5109032;28;20024;-67
2021/09/10 02:49:18;;;;;;;29.95;18.95;;;;;;;15.64;77.28;100294.50;5109151;28;20033;-66
2021/09/10 02:51:43;;;;;;;26.73;18.63;;;;;;;15.62;77.39;100293.72;5108953;28;20020;-67
2021/09/10 02:54:09;;;;;;;27.65;19.83;;;;;;;15.57;77.28;100283.41;5108886;28;20026;-67
2021/09/10 02:56:34;;;;;;;29.38;18.52;;;;;;;15.58;77.54;100287.72;5108617;28;20031;-67
2021/09/10 02:59:00;;;;;;;26.63;18.48;;;;;;;15.58;77.26;100292.09;5108884;28;20394;-68
2021/09/10 03:01:25;;;;;;;27.85;17.95;;;;;;;15.55;77.59;100282.59;5108883;28;20024;-68
2021/09/10 03:03:50;;;;;;;25.73;18.58;;;;;;;15.52;77.62;100284.44;5108583;28;20016;-67
2021/09/10 03:06:16;;;;;;;25.90;17.50;;;;;;;15.51;77.64;100286.19;5108680;28;20030;-66
2021/09/10 03:08:42;;;;;;;27.20;18.75;;;;;;;15.49;77.97;100285.41;5108688;28;20032;-67
2021/09/10 03:11:09;;;;;;;27.17;18.90;;;;;;;15.49;77.65;100283.59;5090045;28;20028;-67
2021/09/10 03:13:34;;;;;;;30.42;19.35;;;;;;;15.53;77.62;100289.63;5108570;28;20022;-67
2021/09/10 03:15:59;;;;;;;26.70;19.52;;;;;;;15.53;77.82;100288.78;5108445;28;20106;-66
2021/09/10 03:18:25;;;;;;;26.95;19.63;;;;;;;15.51;77.81;100285.34;5090406;28;20028;-66
2021/09/10 03:20:50;;;;;;;30.05;19.52;;;;;;;15.48;78.04;100281.03;5108144;28;20044;-66
2021/09/10 03:23:15;;;;;;;27.15;18.67;;;;;;;15.45;77.91;100281.13;5108299;28;20051;-67
2021/09/10 03:25:41;;;;;;;32.55;19.33;;;;;;;15.49;77.73;100278.38;5108071;28;20044;-67
2021/09/10 03:28:06;;;;;;;27.70;18.42;;;;;;;15.45;78.12;100273.28;5090161;28;20065;-66
2021/09/10 03:30:31;;;;;;;27.60;20.27;;;;;;;15.44;78.19;100268.97;5107939;28;20020;-67
2021/09/10 03:32:57;;;;;;;29.23;20.27;;;;;;;15.43;78.38;100272.50;5108038;28;20020;-67
2021/09/10 03:35:22;;;;;;;29.83;19.73;;;;;;;15.42;78.31;100266.41;5108305;28;20024;-67
2021/09/10 03:37:47;;;;;;;27.33;19.02;;;;;;;15.38;78.58;100270.03;5108192;28;20028;-66
2021/09/10 03:40:13;;;;;;;26.98;18.80;;;;;;;15.38;78.62;100272.66;5108088;28;20024;-67
2021/09/10 03:42:39;;;;;;;32.92;19.40;;;;;;;15.40;78.71;100268.22;5108083;28;20131;-68
2021/09/10 03:45:06;;;;;;;28.52;20.85;;;;;;;15.36;78.68;100275.31;5107946;28;20078;-67
2021/09/10 03:47:31;;;;;;;33.00;20.90;;;;;;;15.40;78.78;100278.66;5108115;28;20032;-68
2021/09/10 03:49:56;;;;;;;31.63;20.95;;;;;;;15.40;78.73;100272.59;5108203;28;20483;-67
2021/09/10 03:52:22;;;;;;;30.95;19.92;;;;;;;15.41;79.08;100271.69;5107842;28;20020;-68
2021/09/10 03:54:47;;;;;;;32.95;21.85;;;;;;;15.42;78.96;100274.25;5107487;28;20020;-67
2021/09/10 03:57:12;;;;;;;26.77;19.38;;;;;;;15.44;78.71;100271.59;5107654;28;20075;-67
2021/09/10 03:59:38;;;;;;;29.98;21.67;;;;;;;15.45;78.65;100268.94;5107830;28;20129;-67
2021/09/10 04:02:03;;;;;;;29.60;20.92;;;;;;;15.47;78.47;100271.50;5107743;28;20028;-66
2021/09/10 04:04:29;;;;;;;31.20;21.67;;;;;;;15.45;78.38;100265.44;5107594;28;20069;-66
2021/09/10 04:06:54;;;;;;;28.83;18.90;;;;;;;15.33;78.67;100261.47;5107414;28;20150;-67
2021/09/10 04:09:19;;;;;;;30.25;20.65;;;;;;;15.33;78.90;100270.19;5107329;28;20035;-68
2021/09/10 04:11:45;;;;;;;30.52;20.77;;;;;;;15.30;79.24;100262.44;5107189;28;20027;-67
2021/09/10 04:14:11;;;;;;;28.42;19.98;;;;;;;15.26;79.13;100260.78;5089359;28;20047;-67
2021/09/10 04:16:36;;;;;;;33.55;22.02;;;;;;;15.23;79.32;100258.28;5107420;28;20102;-67
2021/09/10 04:19:02;;;;;;;32.50;20.60;;;;;;;15.26;79.35;100258.16;5107099;28;20020;-66
2021/09/10 04:21:27;;;;;;;33.15;20.67;;;;;;;15.27;79.39;100265.09;5106976;28;20050;-68
2021/09/10 04:23:53;;;;;;;29.63;18.77;;;;;;;15.28;79.46;100259.00;5107080;28;20087;-68
2021/09/10 04:26:19;;;;;;;31.45;21.08;;;;;;;15.32;79.31;100260.59;5106936;28;20365;-68
2021/09/10 04:28:46;;;;;;;30.42;19.35;;;;;;;15.34;79.59;100258.81;5107137;28;20028;-68
2021/09/10 04:31:17;;;;;;;29.60;19.45;;;;;;;15.33;79.39;100267.56;5107067;28;20023;-67
2021/09/10 04:33:46;;;;;;;34.35;22.55;;;;;;;15.33;79.40;100257.09;5106881;28;20413;-69
2021/09/10 04:36:12;;;;;;;30.35;21.27;;;;;;;15.35;79.23;100259.66;5089259;28;20545;-67
2021/09/10 04:38:37;;;;;;;29.25;21.83;;;;;;;15.33;79.24;100254.47;5106906;28;20028;-68
2021/09/10 04:41:03;;;;;;;33.80;21.80;;;;;;;15.31;79.19;100252.78;5106409;28;20104;-67
2021/09/10 04:43:28;;;;;;;32.65;21.05;;;;;;;15.32;79.20;100265.81;5106075;28;20047;-62
2021/09/10 04:45:57;;;;;;;30.20;21.45;;;;;;;15.29;79.18;100259.84;5106624;28;20024;-65
2021/09/10 04:48:22;;;;;;;28.70;20.92;;;;;;;15.21;79.48;100247.84;5106854;28;20083;-67
2021/09/10 04:50:48;;;;;;;29.23;19.63;;;;;;;15.32;79.38;100262.38;5106884;28;20035;-74
2021/09/10 04:53:13;;;;;;;27.38;20.13;;;;;;;15.38;79.41;100266.56;5106359;28;20406;-74
2021/09/10 04:55:38;;;;;;;34.10;21.30;;;;;;;15.42;79.28;100266.41;5106569;28;20024;-73
2021/09/10 04:58:04;;;;;;;31.02;20.83;;;;;;;15.53;78.96;100273.91;5106592;28;20075;-69
2021/09/10 05:00:29;;;;;;;29.42;19.60;;;;;;;15.63;79.01;100268.38;5106536;28;20016;-65
2021/09/10 05:02:54;;;;;;;30.60;20.90;;;;;;;15.77;78.63;100271.41;5106531;28;20028;-68
2021/09/10 05:05:20;;;;;;;29.77;21.00;;;;;;;15.84;78.46;100272.94;5106297;28;20024;-66
2021/09/10 05:07:45;;;;;;;30.20;19.27;;;;;;;15.96;77.82;100276.03;5105969;28;20028;-66
2021/09/10 05:10:11;;;;;;;26.77;19.10;;;;;;;16.07;77.59;100268.72;5106182;28;20069;-67
2021/09/10 05:12:36;;;;;;;31.85;19.63;;;;;;;16.22;77.12;100271.72;5106555;28;20028;-66
2021/09/10 05:15:03;;;;;;;25.95;18.75;;;;;;;16.33;76.50;100280.09;5106110;28;20495;-66
2021/09/10 05:17:29;;;;;;;26.90;19.08;;;;;;;16.46;76.09;100275.28;5106266;28;20028;-67
2021/09/10 05:19:54;;;;;;;26.67;18.30;;;;;;;16.62;75.22;100266.84;5105868;28;20120;-66
2021/09/10 05:22:20;;;;;;;24.00;17.73;;;;;;;16.73;74.42;100266.47;5105931;28;20028;-65
2021/09/10 05:24:45;;;;;;;23.23;17.58;;;;;;;16.88;74.05;100270.31;5105854;28;20079;-64
2021/09/10 05:27:10;;;;;;;27.10;17.58;;;;;;;17.05;73.29;100267.03;5105678;28;20065;-64
2021/09/10 05:29:36;;;;;;;22.83;17.02;;;;;;;17.12;72.80;100261.59;5106127;28;20020;-65
2021/09/10 05:32:02;;;;;;;29.58;18.63;;;;;;;17.34;71.77;100257.22;5105886;28;20056;-66
2021/09/10 05:34:27;;;;;;;22.83;16.10;;;;;;;17.58;70.69;100258.94;5105683;28;20028;-65
2021/09/10 05:36:52;;;;;;;19.38;15.52;;;;;;;17.65;70.16;100264.78;5105699;28;20099;-65
2021/09/10 05:39:21;;;;;;;22.30;15.68;;;;;;;17.77;69.70;100269.53;5105418;28;20023;-66
2021/09/10 05:41:47;;;;;;;28.52;17.70;;;;;;;17.92;69.90;100269.84;5105159;28;20031;-74
2021/09/10 05:44:12;;;;;;;22.92;15.68;;;;;;;18.09;68.94;100271.75;5105411;28;20034;-70
2021/09/10 05:46:37;;;;;;;20.88;14.05;;;;;;;18.24;68.48;100265.03;5105701;28;20024;-70
2021/09/10 05:49:03;;;;;;;19.52;14.98;;;;;;;18.38;67.87;100266.19;5105533;28;20028;-71
2021/09/10 05:51:29;;;;;;;19.90;15.15;;;;;;;18.40;67.13;100261.72;5105733;28;20027;-71
2021/09/10 05:53:54;;;;;;;24.33;16.00;;;;;;;18.45;67.30;100267.66;5104760;28;20059;-73
2021/09/10 05:56:19;;;;;;;21.75;15.10;;;;;;;18.49;67.03;100255.19;5105277;28;20472;-73
2021/09/10 05:58:45;;;;;;;22.33;15.52;;;;;;;18.66;66.53;100263.19;5105777;28;20092;-74
2021/09/10 06:01:10;;;;;;;20.05;15.40;;;;;;;18.67;66.37;100262.28;5105707;28;20034;-73
2021/09/10 06:03:36;;;;;;;18.33;14.32;;;;;;;18.80;66.02;100265.19;5105646;28;20024;-70
2021/09/10 06:06:01;;;;;;;19.27;14.68;;;;;;;18.95;66.60;100268.91;5105689;28;20020;-75
2021/09/10 06:08:26;;;;;;;20.17;14.38;;;;;;;19.25;66.11;100269.38;5105678;28;20464;-73
2021/09/10 06:10:52;;;;;;;19.45;13.15;;;;;;;19.52;64.07;100276.88;5105393;28;20024;-69
2021/09/10 06:13:17;;;;;;;23.02;15.77;;;;;;;19.55;64.37;100269.66;5105327;28;20097;-72
2021/09/10 06:15:43;;;;;;;21.98;14.30;;;;;;;19.76;65.08;100269.53;5105902;28;20020;-70
2021/09/10 06:18:08;;;;;;;21.95;15.10;;;;;;;20.23;63.13;100271.66;5105554;28;20028;-69
2021/09/10 06:20:34;;;;;;;20.15;14.75;;;;;;;20.39;62.04;100269.97;5105250;28;20140;-70
2021/09/10 06:22:59;;;;;;;17.58;13.05;;;;;;;20.52;62.67;100267.53;5105232;28;20028;-70
2021/09/10 06:25:24;;;;;;;19.08;15.32;;;;;;;20.80;60.66;100265.19;5105038;28;20098;-69
2021/09/10 06:27:51;;;;;;;21.70;14.82;;;;;;;20.89;60.80;100264.72;5105424;28;20103;-70
2021/09/10 06:30:16;;;;;;;17.80;14.23;;;;;;;21.13;60.96;100266.13;5087027;28;20051;-70
2021/09/10 06:32:41;;;;;;;16.95;13.38;;;;;;;21.54;60.27;100273.50;5105303;28;20330;-70
2021/09/10 06:35:07;;;;;;;16.10;12.98;;;;;;;21.91;58.67;100275.00;5105207;28;20023;-70
2021/09/10 06:37:32;;;;;;;17.35;12.63;;;;;;;22.09;57.77;100278.34;5105324;28;20073;-70
2021/09/10 06:39:58;;;;;;;15.75;12.35;;;;;;;22.21;57.29;100278.53;5104983;28;20028;-72
2021/09/10 06:42:23;;;;;;;16.02;12.07;;;;;;;22.18;56.67;100266.38;5087142;28;20028;-70
2021/09/10 06:44:52;;;;;;;17.95;13.15;;;;;;;22.25;56.29;100270.31;5104869;28;20028;-71
2021/09/10 06:47:18;;;;;;;19.65;12.35;;;;;;;22.29;56.38;100271.88;5105200;28;20024;-70
2021/09/10 06:49:44;;;;;;;14.20;11.13;;;;;;;22.59;56.75;100275.41;5105299;28;20031;-71
2021/09/10 06:52:09;;;;;;;21.40;12.68;;;;;;;23.10;55.69;100281.13;5105449;28;20024;-70
2021/09/10 06:54:35;;;;;;;16.52;12.15;;;;;;;23.52;55.18;100271.41;5105204;28;20031;-71
2021/09/10 06:57:00;;;;;;;15.75;12.82;;;;;;;23.96;53.66;100284.44;5104878;28;20092;-71
2021/09/10 06:59:25;;;;;;;18.92;11.48;;;;;;;24.20;52.81;100283.75;5086821;28;20023;-71
2021/09/10 07:01:51;;;;;;;15.60;10.95;;;;;;;24.48;52.22;100283.66;5104890;28;20032;-71
2021/09/10 07:04:16;;;;;;;15.32;11.77;;;;;;;24.70;51.49;100283.00;5104973;28;20031;-72
2021/09/10 07:06:41;;;;;;;14.80;11.90;;;;;;;25.12;50.92;100268.59;5107742;28;20016;-72
2021/09/10 07:09:07;;;;;;;21.92;11.20;;;;;;;25.57;50.06;100275.97;5108712;28;20020;-71
2021/09/10 07:11:33;;;;;;;14.77;11.23;;;;;;;26.06;48.60;100286.56;5108713;28;20147;-72
2021/09/10 07:14:02;;;;;;;16.25;10.75;;;;;;;26.03;47.66;100281.47;5108710;28;20054;-72
2021/09/10 07:16:28;;;;;;;16.17;11.13;;;;;;;26.05;47.41;100286.69;5108772;28;20028;-72
2021/09/10 07:18:53;;;;;;;15.45;10.23;;;;;;;26.13;47.27;100278.97;5108637;28;20093;-72
2021/09/10 07:21:19;;;;;;;13.98;10.77;;;;;;;26.33;46.11;100282.78;5108114;28;20139;-72
2021/09/10 07:23:44;;;;;;;12.52;9.32;;;;;;;26.24;43.86;100283.44;5090135;28;20027;-69
2021/09/10 07:26:10;;;;;;;14.00;9.82;;;;;;;25.44;45.78;100280.50;5108199;28;20047;-70
2021/09/10 07:28:37;;;;;;;13.05;10.02;;;;;;;24.98;45.91;100289.06;5107935;28;20034;-66
2021/09/10 07:31:04;;;;;;;14.18;9.63;;;;;;;24.60;46.56;100287.28;5106971;28;20038;-67
2021/09/10 07:33:29;;;;;;;13.50;10.88;;;;;;;24.32;47.74;100290.03;5106882;28;20486;-72
2021/09/10 07:35:55;;;;;;;13.48;10.10;;;;;;;24.55;47.18;100295.56;5107306;28;20020;-70
2021/09/10 07:38:20;;;;;;;13.02;9.63;;;;;;;24.28;46.78;100299.16;5107573;28;20020;-70
2021/09/10 07:40:47;;;;;;;13.52;10.38;;;;;;;24.08;47.15;100306.63;5107533;28;20379;-71
2021/09/10 07:43:13;;;;;;;11.65;9.15;;;;;;;24.04;46.41;100306.94;5089615;28;20020;-70
2021/09/10 07:45:38;;;;;;;11.85;9.57;;;;;;;23.91;46.53;100299.81;5107693;28;20039;-70
2021/09/10 07:48:04;;;;;;;12.30;9.38;;;;;;;23.93;46.59;100300.53;5107852;28;20035;-73
2021/09/10 07:50:29;;;;;;;12.15;10.20;;;;;;;24.07;46.56;100302.28;5107741;28;20027;-69
2021/09/10 07:52:55;;;;;;;12.73;8.93;;;;;;;24.14;44.46;100305.34;5107792;28;20023;-69
2021/09/10 07:55:20;;;;;;;10.77;8.10;;;;;;;23.93;44.60;100305.00;5107563;28;20031;-68
2021/09/10 07:57:45;;;;;;;11.90;9.10;;;;;;;23.77;44.88;100311.34;5107806;28;20054;-68
2021/09/10 08:00:11;;;;;;;12.23;8.40;;;;;;;23.46;45.46;100306.25;5107520;28;20045;-70
2021/09/10 08:02:37;;;;;;;13.73;9.10;;;;;;;23.43;45.98;100317.03;5107610;28;20504;-70
2021/09/10 08:05:03;;;;;;;12.13;8.13;;;;;;;23.86;44.81;100312.50;5089056;28;20020;-70
2021/09/10 08:07:29;;;;;;;10.13;7.65;;;;;;;24.29;42.97;100321.22;5107226;28;20027;-70
2021/09/10 08:09:54;;;;;;;14.73;7.63;;;;;;;24.28;42.18;100314.22;5107699;28;20021;-70
2021/09/10 08:12:20;;;;;;;11.02;8.27;;;;;;;24.29;41.35;100321.22;5107749;28;20032;-69
2021/09/10 08:14:45;;;;;;;10.32;7.65;;;;;;;24.23;42.85;100318.00;5107556;28;20051;-70
2021/09/10 08:17:10;;;;;;;13.60;8.20;;;;;;;24.46;41.30;100310.28;5106474;28;20024;-71
2021/09/10 08:19:36;;;;;;;11.93;7.90;;;;;;;24.78;41.12;100308.19;5107086;28;20020;-71
2021/09/10 08:22:01;;;;;;;9.40;7.13;;;;;;;24.94;39.97;100303.50;5107031;28;20040;-70
2021/09/10 08:24:27;;;;;;;9.82;7.22;;;;;;;25.14;38.79;100303.88;5107111;28;20529;-70
2021/09/10 08:26:53;;;;;;;8.95;6.88;;;;;;;24.88;38.93;100296.78;5106994;28;20016;-70
2021/09/10 08:29:18;;;;;;;9.40;6.95;;;;;;;24.89;39.53;100297.66;5106889;28;20487;-70
2021/09/10 08:31:43;;;;;;;10.20;8.02;;;;;;;24.94;39.60;100313.25;5106746;28;20030;-70
2021/09/10 08:34:09;;;;;;;8.73;7.03;;;;;;;25.12;39.59;100303.13;5106732;28;20016;-70
2021/09/10 08:36:34;;;;;;;12.95;7.97;;;;;;;25.19;39.03;100298.25;5106834;28;20020;-71
2021/09/10 08:39:00;;;;;;;12.80;6.78;;;;;;;25.31;38.33;100302.66;5106955;28;20028;-71
2021/09/10 08:41:27;;;;;;;8.30;6.63;;;;;;;25.57;37.22;100301.69;5106543;28;20024;-71
2021/09/10 08:43:57;;;;;;;13.98;7.30;;;;;;;25.81;37.48;100299.06;5106653;28;20016;-71
2021/09/10 08:46:24;;;;;;;10.93;6.72;;;;;;;26.24;36.30;100302.94;5107011;28;20016;-71
2021/09/10 08:48:49;;;;;;;9.00;7.15;;;;;;;26.53;34.89;100301.66;5106794;28;20026;-71
2021/09/10 08:51:17;;;;;;;12.20;6.55;;;;;;;26.54;35.57;100299.84;5107065;28;20020;-71
2021/09/10 08:53:43;;;;;;;8.48;6.80;;;;;;;26.68;35.41;100302.28;5106488;28;20024;-72
2021/09/10 08:56:08;;;;;;;8.52;6.63;;;;;;;27.30;35.42;100296.53;5106254;28;20031;-71
2021/09/10 08:58:34;;;;;;;9.43;6.95;;;;;;;27.68;33.04;100289.06;5106522;28;20020;-72
2021/09/10 09:01:00;;;;;;;10.30;6.72;;;;;;;27.75;33.76;100285.88;5106410;28;20028;-73
2021/09/10 09:03:30;;;;;;;12.30;7.05;;;;;;;27.86;32.68;100300.97;5106546;28;20024;-73
2021/09/10 09:05:56;;;;;;;10.65;7.28;;;;;;;27.71;32.22;100293.28;5106641;28;20088;-72
2021/09/10 09:08:21;;;;;;;10.38;6.85;;;;;;;27.47;32.37;100295.16;5106448;28;20020;-73
2021/09/10 09:11:10;;;;;;;11.25;6.43;;;;;;;27.68;32.30;100286.41;5106251;28;20035;-73
2021/09/10 09:13:39;;;;;;;12.43;7.07;;;;;;;28.15;30.52;100289.66;5105559;28;20040;-72
2021/09/10 09:16:24;;;;;;;10.45;6.50;;;;;;;28.41;30.12;100295.44;5106509;28;20036;-72
2021/09/10 09:18:53;;;;;;;7.53;6.20;;;;;;;28.56;28.58;100289.75;5106091;28;20032;-72
2021/09/10 09:21:27;;;;;;;6.50;5.85;;;;;;;28.45;28.62;100293.38;5105918;28;20052;-72
2021/09/10 09:23:54;;;;;;;9.43;6.68;;;;;;;28.25;28.95;100295.03;5106176;28;20059;-72
2021/09/10 09:26:29;;;;;;;14.57;6.90;;;;;;;28.11;29.30;100290.88;5105932;28;20020;-72
2021/09/10 09:29:22;;;;;;;12.07;6.85;;;;;;;27.94;29.63;100295.84;5105872;28;20103;-72
2021/09/10 09:31:58;;;;;;;7.25;6.10;;;;;;;27.91;29.76;100288.09;5102379;28;20086;-72
2021/09/10 09:34:53;;;;;;;8.25;5.95;;;;;;;27.73;29.83;100291.34;5106214;28;20016;-72
2021/09/10 09:37:24;;;;;;;9.43;6.40;;;;;;;27.77;29.48;100294.56;5088386;28;20036;-72
2021/09/10 09:39:55;;;;;;;8.93;6.07;;;;;;;27.81;29.29;100291.53;5105910;28;20380;-73
2021/09/10 09:42:35;;;;;;;13.43;6.40;;;;;;;27.66;29.51;100282.97;5105777;28;20035;-72
2021/09/10 09:45:17;;;;;;;6.72;5.28;;;;;;;27.63;29.48;100283.22;5105719;28;20024;-72
2021/09/10 09:47:43;;;;;;;9.15;6.60;;;;;;;27.48;29.31;100288.00;5105813;28;20056;-72
2021/09/10 09:50:11;;;;;;;8.82;6.40;;;;;;;27.36;30.47;100281.88;5106066;28;20495;-73
2021/09/10 09:52:37;;;;;;;14.27;6.60;;;;;;;27.75;30.68;100278.69;5105469;28;20020;-73
2021/09/10 09:55:04;;;;;;;11.65;5.93;;;;;;;28.24;29.54;100272.00;5105772;28;20024;-73
2021/09/10 09:57:31;;;;;;;10.25;6.28;;;;;;;28.62;28.91;100267.84;5087381;28;20035;-72
2021/09/10 09:59:57;;;;;;;9.68;6.10;;;;;;;29.35;27.14;100273.94;5105548;28;20031;-71
2021/09/10 10:02:23;;;;;;;8.60;5.90;;;;;;;29.18;27.18;100281.69;5105699;28;20024;-71
2021/09/10 10:04:48;;;;;;;7.15;5.45;;;;;;;28.97;27.25;100280.91;5105443;28;20032;-70
2021/09/10 10:07:16;;;;;;;7.80;5.80;;;;;;;28.93;27.03;100273.16;5105776;28;20023;-71
2021/09/10 10:09:43;;;;;;;11.13;6.32;;;;;;;28.64;27.37;100268.59;5105437;28;20024;-72
2021/09/10 10:12:10;;;;;;;8.55;5.95;;;;;;;28.71;27.77;100279.53;5105627;28;20229;-72
2021/09/10 10:14:39;;;;;;;8.13;6.45;;;;;;;28.97;27.28;100267.56;5087232;28;20089;-71
2021/09/10 10:17:25;;;;;;;9.32;6.80;;;;;;;28.77;28.16;100270.16;5105650;28;20031;-71
2021/09/10 10:19:51;;;;;;;7.70;5.88;;;;;;;28.89;27.20;100265.53;5102881;28;20028;-71
2021/09/10 10:22:35;;;;;;;6.78;5.82;;;;;;;28.39;28.54;100270.69;5102205;28;20051;-71
2021/09/10 10:25:02;;;;;;;9.02;5.63;;;;;;;28.51;28.37;100266.13;5101949;28;20016;-72
2021/09/10 10:27:40;;;;;;;9.98;5.75;;;;;;;28.52;29.06;100266.97;5101689;28;20020;-71
2021/09/10 10:30:08;;;;;;;6.93;5.40;;;;;;;28.49;29.25;100278.75;5101680;28;20028;-71
2021/09/10 10:32:43;;;;;;;8.43;5.28;;;;;;;28.55;28.65;100267.53;5083381;28;20096;-71
2021/09/10 10:35:19;;;;;;;8.18;6.05;;;;;;;28.68;28.49;100267.31;5102935;28;20024;-71
2021/09/10 10:37:49;;;;;;;8.95;6.30;;;;;;;28.72;28.22;100265.22;5105464;28;20028;-71
2021/09/10 10:40:31;;;;;;;9.60;6.50;;;;;;;28.29;29.26;100270.63;5105595;28;20027;-71
2021/09/10 10:43:03;;;;;;;14.70;6.70;;;;;;;28.09;29.95;100270.53;5109123;28;20020;-71
2021/09/10 10:45:37;;;;;;;10.48;6.63;;;;;;;28.66;29.28;100266.59;5108925;28;20530;-71
2021/09/10 10:48:03;;;;;;;8.93;5.78;;;;;;;28.81;29.17;100268.91;5109111;28;20027;-72
2021/09/10 10:50:33;;;;;;;9.80;6.75;;;;;;;28.58;29.43;100258.41;5090824;28;20029;-71
2021/09/10 10:52:58;;;;;;;11.23;5.75;;;;;;;28.53;29.37;100268.66;5108958;28;20024;-71
2021/09/10 10:55:36;;;;;;;9.68;6.07;;;;;;;28.35;29.27;100268.44;5108765;28;20024;-71
2021/09/10 10:58:23;;;;;;;10.68;7.00;;;;;;;27.91;30.82;100264.91;5108850;28;20047;-72
2021/09/10 11:00:48;;;;;;;12.38;6.63;;;;;;;28.27;30.59;100261.06;5108923;28;20024;-72
2021/09/10 11:03:14;;;;;;;12.13;6.50;;;;;;;28.63;29.67;100258.03;5090412;28;20027;-72
2021/09/10 11:05:47;;;;;;;11.45;6.63;;;;;;;29.11;29.08;100253.81;5090403;28;20487;-71
2021/09/10 11:08:17;;;;;;;8.73;6.32;;;;;;;29.10;29.05;100243.25;5090564;28;20172;-72
2021/09/10 11:10:43;;;;;;;7.90;6.35;;;;;;;28.99;29.71;100254.91;5090138;28;20016;-71